createdAt,value
2023-03-23T15:58:38.365Z,99758.86
2023-03-23T16:01:14.419Z,99761.90
2023-03-23T16:03:47.766Z,99761.52
2023-03-23T16:06:24.070Z,99768.63
2023-03-23T16:08:57.004Z,99765.66
2023-03-23T16:11:30.665Z,99770.73
2023-03-23T16:14:01.729Z,99774.02
2023-03-23T16:16:35.295Z,99771.98
2023-03-23T16:19:07.084Z,99776.99
2023-03-23T16:21:38.265Z,99774.63
2023-03-23T16:24:11.435Z,99772.67
2023-03-23T16:26:42.079Z,99781.80
2023-03-23T16:29:28.394Z,99784.50
2023-03-23T16:32:05.019Z,99789.63
2023-03-23T16:34:35.674Z,99789.67
2023-03-23T16:37:06.355Z,99785.20
2023-03-23T16:39:36.996Z,99788.44
2023-03-23T16:42:07.772Z,99789.52
2023-03-23T16:44:36.922Z,99800.80
2023-03-23T16:47:07.609Z,99804.27
2023-03-23T16:49:38.288Z,99806.27
2023-03-23T16:52:09.132Z,99803.05
2023-03-23T16:54:39.888Z,99791.73
2023-03-23T16:57:10.595Z,99796.48
2023-03-23T16:59:41.375Z,99805.04
2023-03-23T17:02:13.099Z,99808.77
2023-03-23T17:04:46.423Z,99800.87
2023-03-23T17:07:17.350Z,99801.64
2023-03-23T17:09:48.050Z,99814.90
2023-03-23T17:12:18.886Z,99822.92
2023-03-23T17:14:49.675Z,99828.05
2023-03-23T17:17:20.721Z,99826.47
2023-03-23T17:19:51.632Z,99830.89
2023-03-23T17:22:20.808Z,99837.20
2023-03-23T17:24:51.702Z,99830.30
2023-03-23T17:27:21.480Z,99832.24
2023-03-23T17:29:52.163Z,99826.71
2023-03-23T17:32:23.005Z,99826.63
2023-03-23T17:34:52.052Z,99825.84
2023-03-23T17:37:23.198Z,99830.17
2023-03-23T17:39:54.237Z,99840.70
2023-03-23T17:42:24.920Z,99847.31
2023-03-23T17:44:55.630Z,99839.83
2023-03-23T17:47:26.295Z,99839.33
2023-03-23T17:49:55.567Z,99836.54
2023-03-23T17:52:26.553Z,99841.48
2023-03-23T17:54:55.749Z,99836.84
2023-03-23T17:57:26.605Z,99837.50
2023-03-23T17:59:57.290Z,99850.24
2023-03-23T18:02:28.147Z,99853.95
2023-03-23T18:04:59.806Z,99850.25
2023-03-23T18:07:30.643Z,99858.10
2023-03-23T18:10:01.609Z,99853.14
2023-03-23T18:12:32.359Z,99860.57
2023-03-23T18:15:03.025Z,99858.48
2023-03-23T18:17:32.453Z,99860.93
2023-03-23T18:20:03.929Z,99867.95
2023-03-23T18:22:34.884Z,99881.21
2023-03-23T18:25:08.083Z,99885.98
2023-03-23T18:27:38.971Z,99881.64
2023-03-23T18:30:09.879Z,99869.52
2023-03-23T18:32:41.482Z,99866.56
2023-03-23T18:35:13.020Z,99864.23
2023-03-23T18:37:43.766Z,99853.64
2023-03-23T18:40:14.798Z,99855.14
2023-03-23T18:42:43.869Z,99851.02
2023-03-23T18:45:14.769Z,99851.16
2023-03-23T18:47:45.601Z,99843.07
2023-03-23T18:50:14.813Z,99842.28
2023-03-23T18:52:47.542Z,99848.67
2023-03-23T18:55:16.844Z,99851.10
2023-03-23T18:57:47.915Z,99853.84
2023-03-23T19:00:19.825Z,99853.92
2023-03-23T19:02:51.765Z,99857.23
2023-03-23T19:05:23.432Z,99852.98
2023-03-23T19:07:54.310Z,99852.07
2023-03-23T19:10:25.415Z,99851.70
2023-03-23T19:12:56.261Z,99850.98
2023-03-23T19:15:27.242Z,99852.02
2023-03-23T19:17:58.148Z,99857.02
2023-03-23T19:20:43.670Z,99861.30
2023-03-23T19:23:20.591Z,99868.30
2023-03-23T19:25:52.434Z,99868.09
2023-03-23T19:29:05.567Z,99870.38
2023-03-23T19:31:14.727Z,99873.51
2023-03-23T19:33:45.514Z,99884.34
2023-03-23T19:36:18.477Z,99889.95
2023-03-23T19:38:49.757Z,99898.37
2023-03-23T19:41:21.045Z,99900.27
2023-03-23T19:43:52.139Z,99903.40
2023-03-23T19:46:23.603Z,99899.19
2023-03-23T19:48:54.590Z,99899.26
2023-03-23T19:51:26.695Z,99897.52
2023-03-23T19:53:58.817Z,99894.85
2023-03-23T19:56:29.867Z,99894.88
2023-03-23T19:59:01.021Z,99888.79
2023-03-23T20:01:31.984Z,99897.80
2023-03-23T20:04:01.826Z,99897.25
2023-03-23T20:06:33.292Z,99899.11
2023-03-23T20:09:02.734Z,99899.77
2023-03-23T20:11:34.503Z,99901.14
2023-03-23T20:14:05.370Z,99906.81
2023-03-23T20:16:36.374Z,99903.11
2023-03-23T20:19:07.647Z,99909.55
2023-03-23T20:24:08.144Z,99921.52
2023-03-23T20:26:40.807Z,99923.06
2023-03-23T20:29:11.540Z,99925.11
2023-03-23T20:31:42.963Z,99926.41
2023-03-23T20:34:16.308Z,99932.29
2023-03-23T20:36:47.334Z,99931.82
2023-03-23T20:39:19.248Z,99931.09
2023-03-23T20:41:51.120Z,99931.36
2023-03-23T20:44:22.163Z,99929.38
2023-03-23T20:46:52.201Z,99928.40
2023-03-23T20:49:23.187Z,99930.89
2023-03-23T20:51:52.248Z,99932.40
2023-03-23T20:54:23.340Z,99935.67
2023-03-23T20:56:56.239Z,99932.75
2023-03-23T20:59:27.747Z,99931.25
2023-03-23T21:01:58.392Z,99931.89
2023-03-23T21:04:29.075Z,99931.35
2023-03-23T21:06:59.723Z,99929.66
2023-03-23T21:09:30.506Z,99935.06
2023-03-23T21:12:01.654Z,99932.63
2023-03-23T21:14:32.743Z,99934.80
2023-03-23T21:17:03.942Z,99933.02
2023-03-23T21:19:35.394Z,99932.71
2023-03-23T21:22:04.489Z,99937.30
2023-03-23T21:24:35.273Z,99932.58
2023-03-23T21:27:06.262Z,99934.65
2023-03-23T21:29:35.349Z,99938.02
2023-03-23T21:32:08.694Z,99933.15
2023-03-23T21:34:39.635Z,99931.23
2023-03-23T21:37:10.241Z,99926.95
2023-03-23T21:39:40.949Z,99925.25
2023-03-23T21:42:12.413Z,99925.55
2023-03-23T21:44:43.157Z,99927.91
2023-03-23T21:47:14.777Z,99930.14
2023-03-23T21:49:45.704Z,99926.52
2023-03-23T21:52:16.355Z,99932.05
2023-03-23T21:54:47.175Z,99932.45
2023-03-23T21:57:18.180Z,99931.42
2023-03-23T21:59:48.830Z,99936.86
2023-03-23T22:02:19.515Z,99941.58
2023-03-23T22:04:50.671Z,99938.90
2023-03-23T22:07:21.313Z,99933.73
2023-03-23T22:09:52.208Z,99937.23
2023-03-23T22:12:21.340Z,99936.36
2023-03-23T22:14:52.071Z,99936.35
2023-03-23T22:17:22.778Z,99937.63
2023-03-23T22:19:53.470Z,99939.76
2023-03-23T22:22:24.149Z,99933.52
2023-03-23T22:24:54.965Z,99934.84
2023-03-23T22:27:25.817Z,99935.84
2023-03-23T22:29:56.521Z,99931.92
2023-03-23T22:32:27.294Z,99929.72
2023-03-23T22:34:58.088Z,99926.48
2023-03-23T22:37:29.253Z,99926.16
2023-03-23T22:39:59.962Z,99921.02
2023-03-23T22:42:30.654Z,99924.31
2023-03-23T22:45:01.459Z,99922.79
2023-03-23T22:47:32.157Z,99921.58
2023-03-23T22:50:02.982Z,99922.55
2023-03-23T22:52:33.850Z,99919.91
2023-03-23T22:55:03.081Z,99914.64
2023-03-23T22:57:34.007Z,99918.32
2023-03-23T23:00:17.359Z,99919.64
2023-03-23T23:02:48.051Z,99914.49
2023-03-23T23:05:19.156Z,99913.06
2023-03-23T23:07:49.915Z,99907.51
2023-03-23T23:10:20.687Z,99905.10
2023-03-23T23:12:51.400Z,99898.36
2023-03-23T23:15:22.216Z,99896.84
2023-03-23T23:17:52.868Z,99895.34
2023-03-23T23:20:30.016Z,99898.48
2023-03-23T23:23:01.374Z,99893.66
2023-03-23T23:25:32.584Z,99899.39
2023-03-23T23:28:04.709Z,99892.08
2023-03-23T23:30:42.838Z,99889.48
2023-03-23T23:33:13.595Z,99884.16
2023-03-23T23:35:44.516Z,99884.42
2023-03-23T23:38:15.855Z,99881.09
2023-03-23T23:40:47.764Z,99883.11
2023-03-23T23:43:18.668Z,99882.08
2023-03-23T23:45:49.391Z,99882.29
2023-03-23T23:48:20.252Z,99877.98
2023-03-23T23:50:52.904Z,99881.86
2023-03-23T23:53:23.538Z,99882.80
2023-03-23T23:55:54.381Z,99888.15
2023-03-23T23:58:25.040Z,99882.23
